sensor_id;sensor_type;location;lat;lon;timestamp;temperature;humidity
25092;DHT22;13082;52.374;4.946;2022-11-23T00:00:02;8.70;99.90
25092;DHT22;13082;52.374;4.946;2022-11-23T00:02:27;8.60;99.90
25092;DHT22;13082;52.374;4.946;2022-11-23T00:04:53;8.60;99.90
25092;DHT22;13082;52.374;4.946;2022-11-23T00:07:18;8.60;99.90
25092;DHT22;13082;52.374;4.946;2022-11-23T00:09:44;8.60;99.90
25092;DHT22;13082;52.374;4.946;2022-11-23T00:12:10;8.60;99.90
25092;DHT22;13082;52.374;4.946;2022-11-23T00:14:36;8.60;99.90
25092;DHT22;13082;52.374;4.946;2022-11-23T00:17:02;8.60;99.90
25092;DHT22;13082;52.374;4.946;2022-11-23T00:19:28;8.60;99.90
25092;DHT22;13082;52.374;4.946;2022-11-23T00:21:54;8.60;99.90
25092;DHT22;13082;52.374;4.946;2022-11-23T00:24:19;8.50;99.90
25092;DHT22;13082;52.374;4.946;2022-11-23T00:26:45;8.50;99.90
25092;DHT22;13082;52.374;4.946;2022-11-23T00:29:10;8.50;99.90
25092;DHT22;13082;52.374;4.946;2022-11-23T00:31:36;8.50;99.90
25092;DHT22;13082;52.374;4.946;2022-11-23T00:34:01;8.50;99.90
25092;DHT22;13082;52.374;4.946;2022-11-23T00:36:27;8.50;99.90
25092;DHT22;13082;52.374;4.946;2022-11-23T00:38:53;8.50;99.90
25092;DHT22;13082;52.374;4.946;2022-11-23T00:41:25;8.50;99.90
25092;DHT22;13082;52.374;4.946;2022-11-23T00:43:51;8.50;99.90
25092;DHT22;13082;52.374;4.946;2022-11-23T00:48:46;8.50;99.90
25092;DHT22;13082;52.374;4.946;2022-11-23T00:51:15;8.50;99.90
25092;DHT22;13082;52.374;4.946;2022-11-23T00:53:41;8.40;99.90
25092;DHT22;13082;52.374;4.946;2022-11-23T00:56:07;8.50;99.90
25092;DHT22;13082;52.374;4.946;2022-11-23T00:58:33;8.40;99.90
25092;DHT22;13082;52.374;4.946;2022-11-23T01:01:11;8.50;99.90
25092;DHT22;13082;52.374;4.946;2022-11-23T01:03:40;8.40;99.90
25092;DHT22;13082;52.374;4.946;2022-11-23T01:06:12;8.50;99.90
25092;DHT22;13082;52.374;4.946;2022-11-23T01:08:38;8.50;99.90
25092;DHT22;13082;52.374;4.946;2022-11-23T01:11:09;8.50;99.90
25092;DHT22;13082;52.374;4.946;2022-11-23T01:13:37;8.50;99.90
25092;DHT22;13082;52.374;4.946;2022-11-23T01:16:03;8.50;99.90
25092;DHT22;13082;52.374;4.946;2022-11-23T01:18:29;8.50;99.90
25092;DHT22;13082;52.374;4.946;2022-11-23T01:20:54;8.50;99.90
25092;DHT22;13082;52.374;4.946;2022-11-23T01:23:20;8.50;99.90
25092;DHT22;13082;52.374;4.946;2022-11-23T01:25:46;8.50;99.90
25092;DHT22;13082;52.374;4.946;2022-11-23T01:28:12;8.50;99.90
25092;DHT22;13082;52.374;4.946;2022-11-23T01:30:38;8.50;99.90
25092;DHT22;13082;52.374;4.946;2022-11-23T01:33:04;8.50;99.90
25092;DHT22;13082;52.374;4.946;2022-11-23T01:35:30;8.50;99.90
25092;DHT22;13082;52.374;4.946;2022-11-23T01:37:55;8.50;99.90
25092;DHT22;13082;52.374;4.946;2022-11-23T01:40:21;8.50;99.90
25092;DHT22;13082;52.374;4.946;2022-11-23T01:42:58;8.40;99.90
25092;DHT22;13082;52.374;4.946;2022-11-23T01:45:39;8.40;99.90
25092;DHT22;13082;52.374;4.946;2022-11-23T01:48:09;8.40;99.90
25092;DHT22;13082;52.374;4.946;2022-11-23T01:50:36;8.40;99.90
25092;DHT22;13082;52.374;4.946;2022-11-23T01:53:02;8.40;99.90
25092;DHT22;13082;52.374;4.946;2022-11-23T01:55:28;8.40;99.90
25092;DHT22;13082;52.374;4.946;2022-11-23T01:57:54;8.40;99.90
25092;DHT22;13082;52.374;4.946;2022-11-23T02:00:20;8.40;99.90
25092;DHT22;13082;52.374;4.946;2022-11-23T02:02:52;8.40;99.90
25092;DHT22;13082;52.374;4.946;2022-11-23T02:05:23;8.40;99.90
25092;DHT22;13082;52.374;4.946;2022-11-23T02:07:50;8.40;99.90
25092;DHT22;13082;52.374;4.946;2022-11-23T02:10:16;8.40;99.90
25092;DHT22;13082;52.374;4.946;2022-11-23T02:12:42;8.40;99.90
25092;DHT22;13082;52.374;4.946;2022-11-23T02:15:08;8.30;99.90
25092;DHT22;13082;52.374;4.946;2022-11-23T02:17:34;8.30;99.90
25092;DHT22;13082;52.374;4.946;2022-11-23T02:20:12;8.30;99.90
25092;DHT22;13082;52.374;4.946;2022-11-23T02:23:07;8.30;99.90
25092;DHT22;13082;52.374;4.946;2022-11-23T02:28:17;8.30;99.90
25092;DHT22;13082;52.374;4.946;2022-11-23T02:30:46;8.30;99.90
25092;DHT22;13082;52.374;4.946;2022-11-23T02:33:13;8.30;99.90
25092;DHT22;13082;52.374;4.946;2022-11-23T02:35:54;8.30;99.90
25092;DHT22;13082;52.374;4.946;2022-11-23T02:38:21;8.30;99.90
25092;DHT22;13082;52.374;4.946;2022-11-23T02:40:49;8.40;99.90
25092;DHT22;13082;52.374;4.946;2022-11-23T02:43:15;8.40;99.90
25092;DHT22;13082;52.374;4.946;2022-11-23T02:45:50;8.40;99.90
25092;DHT22;13082;52.374;4.946;2022-11-23T02:48:17;8.40;99.90
25092;DHT22;13082;52.374;4.946;2022-11-23T02:50:44;8.40;99.90
25092;DHT22;13082;52.374;4.946;2022-11-23T02:53:10;8.40;99.90
25092;DHT22;13082;52.374;4.946;2022-11-23T02:55:35;8.40;99.90
25092;DHT22;13082;52.374;4.946;2022-11-23T02:58:02;8.40;99.90
25092;DHT22;13082;52.374;4.946;2022-11-23T03:00:27;8.40;99.90
25092;DHT22;13082;52.374;4.946;2022-11-23T03:02:53;8.40;99.90
25092;DHT22;13082;52.374;4.946;2022-11-23T03:05:19;8.40;99.90
25092;DHT22;13082;52.374;4.946;2022-11-23T03:07:44;8.40;99.90
25092;DHT22;13082;52.374;4.946;2022-11-23T03:10:10;8.40;99.90
25092;DHT22;13082;52.374;4.946;2022-11-23T03:12:36;8.40;99.90
25092;DHT22;13082;52.374;4.946;2022-11-23T03:15:01;8.40;99.90
25092;DHT22;13082;52.374;4.946;2022-11-23T03:17:27;8.50;99.90
25092;DHT22;13082;52.374;4.946;2022-11-23T03:19:53;8.50;99.90
25092;DHT22;13082;52.374;4.946;2022-11-23T03:22:19;8.50;99.90
25092;DHT22;13082;52.374;4.946;2022-11-23T03:24:44;8.50;99.90
25092;DHT22;13082;52.374;4.946;2022-11-23T03:27:10;8.50;99.90
25092;DHT22;13082;52.374;4.946;2022-11-23T03:29:36;8.40;99.90
25092;DHT22;13082;52.374;4.946;2022-11-23T03:32:01;8.40;99.90
25092;DHT22;13082;52.374;4.946;2022-11-23T03:34:27;8.40;99.90
25092;DHT22;13082;52.374;4.946;2022-11-23T03:36:53;8.40;99.90
25092;DHT22;13082;52.374;4.946;2022-11-23T03:39:18;8.40;99.90
25092;DHT22;13082;52.374;4.946;2022-11-23T03:41:44;8.40;99.90
25092;DHT22;13082;52.374;4.946;2022-11-23T03:44:09;8.40;99.90
25092;DHT22;13082;52.374;4.946;2022-11-23T03:46:35;8.40;99.90
25092;DHT22;13082;52.374;4.946;2022-11-23T03:49:00;8.40;99.90
25092;DHT22;13082;52.374;4.946;2022-11-23T03:51:26;8.40;99.90
25092;DHT22;13082;52.374;4.946;2022-11-23T03:53:52;8.40;99.90
25092;DHT22;13082;52.374;4.946;2022-11-23T03:56:17;8.40;99.90
25092;DHT22;13082;52.374;4.946;2022-11-23T03:58:44;8.40;99.90
25092;DHT22;13082;52.374;4.946;2022-11-23T04:01:10;8.40;99.90
25092;DHT22;13082;52.374;4.946;2022-11-23T04:03:35;8.40;99.90
25092;DHT22;13082;52.374;4.946;2022-11-23T04:06:01;8.40;99.90
25092;DHT22;13082;52.374;4.946;2022-11-23T04:08:26;8.40;99.90
25092;DHT22;13082;52.374;4.946;2022-11-23T04:10:55;8.30;99.90
25092;DHT22;13082;52.374;4.946;2022-11-23T04:13:22;8.40;99.90
25092;DHT22;13082;52.374;4.946;2022-11-23T04:15:48;8.40;99.90
25092;DHT22;13082;52.374;4.946;2022-11-23T04:18:13;8.40;99.90
25092;DHT22;13082;52.374;4.946;2022-11-23T04:20:39;8.40;99.90
25092;DHT22;13082;52.374;4.946;2022-11-23T04:23:05;8.40;99.90
25092;DHT22;13082;52.374;4.946;2022-11-23T04:25:30;8.40;99.90
25092;DHT22;13082;52.374;4.946;2022-11-23T04:27:56;8.40;99.90
25092;DHT22;13082;52.374;4.946;2022-11-23T04:30:22;8.50;99.90
25092;DHT22;13082;52.374;4.946;2022-11-23T04:32:47;8.50;99.90
25092;DHT22;13082;52.374;4.946;2022-11-23T04:35:13;8.50;99.90
25092;DHT22;13082;52.374;4.946;2022-11-23T04:37:39;8.50;99.90
25092;DHT22;13082;52.374;4.946;2022-11-23T04:40:05;8.50;99.90
25092;DHT22;13082;52.374;4.946;2022-11-23T04:42:30;8.50;99.90
25092;DHT22;13082;52.374;4.946;2022-11-23T04:44:56;8.60;99.90
25092;DHT22;13082;52.374;4.946;2022-11-23T04:47:23;8.60;99.90
25092;DHT22;13082;52.374;4.946;2022-11-23T04:49:48;8.60;99.90
25092;DHT22;13082;52.374;4.946;2022-11-23T04:52:14;8.60;99.90
25092;DHT22;13082;52.374;4.946;2022-11-23T04:54:39;8.60;99.90
25092;DHT22;13082;52.374;4.946;2022-11-23T04:57:05;8.60;99.90
25092;DHT22;13082;52.374;4.946;2022-11-23T04:59:31;8.60;99.90
25092;DHT22;13082;52.374;4.946;2022-11-23T05:01:56;8.60;99.90
25092;DHT22;13082;52.374;4.946;2022-11-23T05:04:22;8.60;99.90
25092;DHT22;13082;52.374;4.946;2022-11-23T05:06:47;8.60;99.90
25092;DHT22;13082;52.374;4.946;2022-11-23T05:09:13;8.60;99.90
25092;DHT22;13082;52.374;4.946;2022-11-23T05:11:38;8.60;99.90
25092;DHT22;13082;52.374;4.946;2022-11-23T05:14:04;8.60;99.90
25092;DHT22;13082;52.374;4.946;2022-11-23T05:16:30;8.60;99.90
25092;DHT22;13082;52.374;4.946;2022-11-23T05:18:55;8.60;99.90
25092;DHT22;13082;52.374;4.946;2022-11-23T05:21:21;8.60;99.90
25092;DHT22;13082;52.374;4.946;2022-11-23T05:23:46;8.60;99.90
25092;DHT22;13082;52.374;4.946;2022-11-23T05:26:12;8.60;99.90
25092;DHT22;13082;52.374;4.946;2022-11-23T05:28:38;8.60;99.90
25092;DHT22;13082;52.374;4.946;2022-11-23T05:31:04;8.60;99.90
25092;DHT22;13082;52.374;4.946;2022-11-23T05:33:30;8.60;99.90
25092;DHT22;13082;52.374;4.946;2022-11-23T05:35:55;8.60;99.90
25092;DHT22;13082;52.374;4.946;2022-11-23T05:38:21;8.60;99.90
25092;DHT22;13082;52.374;4.946;2022-11-23T05:40:47;8.60;99.90
25092;DHT22;13082;52.374;4.946;2022-11-23T05:43:12;8.60;99.90
25092;DHT22;13082;52.374;4.946;2022-11-23T05:45:38;8.60;99.90
25092;DHT22;13082;52.374;4.946;2022-11-23T05:48:04;8.70;99.90
25092;DHT22;13082;52.374;4.946;2022-11-23T05:50:30;8.70;99.90
25092;DHT22;13082;52.374;4.946;2022-11-23T05:52:58;8.70;99.90
25092;DHT22;13082;52.374;4.946;2022-11-23T05:55:24;8.70;99.90
25092;DHT22;13082;52.374;4.946;2022-11-23T05:57:50;8.70;99.90
25092;DHT22;13082;52.374;4.946;2022-11-23T06:00:17;8.70;99.90
25092;DHT22;13082;52.374;4.946;2022-11-23T06:02:42;8.70;99.90
25092;DHT22;13082;52.374;4.946;2022-11-23T06:05:08;8.70;99.90
25092;DHT22;13082;52.374;4.946;2022-11-23T06:07:34;8.70;99.90
25092;DHT22;13082;52.374;4.946;2022-11-23T06:10:01;8.70;99.90
25092;DHT22;13082;52.374;4.946;2022-11-23T06:12:27;8.70;99.90
25092;DHT22;13082;52.374;4.946;2022-11-23T06:14:53;8.70;99.90
25092;DHT22;13082;52.374;4.946;2022-11-23T06:17:19;8.80;99.90
25092;DHT22;13082;52.374;4.946;2022-11-23T06:19:44;8.70;99.90
25092;DHT22;13082;52.374;4.946;2022-11-23T06:22:10;8.70;99.90
25092;DHT22;13082;52.374;4.946;2022-11-23T06:24:36;8.70;99.90
25092;DHT22;13082;52.374;4.946;2022-11-23T06:27:02;8.70;99.90
25092;DHT22;13082;52.374;4.946;2022-11-23T06:29:27;8.70;99.90
25092;DHT22;13082;52.374;4.946;2022-11-23T06:31:53;8.70;99.90
25092;DHT22;13082;52.374;4.946;2022-11-23T06:34:19;8.70;99.90
25092;DHT22;13082;52.374;4.946;2022-11-23T06:36:44;8.70;99.90
25092;DHT22;13082;52.374;4.946;2022-11-23T06:39:10;8.70;99.90
25092;DHT22;13082;52.374;4.946;2022-11-23T06:41:36;8.70;99.90
25092;DHT22;13082;52.374;4.946;2022-11-23T06:44:01;8.60;99.90
25092;DHT22;13082;52.374;4.946;2022-11-23T06:46:27;8.60;99.90
25092;DHT22;13082;52.374;4.946;2022-11-23T06:48:53;8.60;99.90
25092;DHT22;13082;52.374;4.946;2022-11-23T06:51:18;8.50;99.90
25092;DHT22;13082;52.374;4.946;2022-11-23T06:53:44;8.50;99.90
25092;DHT22;13082;52.374;4.946;2022-11-23T06:56:10;8.50;99.90
25092;DHT22;13082;52.374;4.946;2022-11-23T06:58:36;8.50;99.90
25092;DHT22;13082;52.374;4.946;2022-11-23T07:01:04;8.50;99.90
25092;DHT22;13082;52.374;4.946;2022-11-23T07:03:30;8.50;99.90
25092;DHT22;13082;52.374;4.946;2022-11-23T07:05:56;8.50;99.90
25092;DHT22;13082;52.374;4.946;2022-11-23T07:08:22;8.50;99.90
25092;DHT22;13082;52.374;4.946;2022-11-23T07:10:47;8.50;99.90
25092;DHT22;13082;52.374;4.946;2022-11-23T07:13:13;8.50;99.90
25092;DHT22;13082;52.374;4.946;2022-11-23T07:15:40;8.50;99.90
25092;DHT22;13082;52.374;4.946;2022-11-23T07:18:06;8.50;99.90
25092;DHT22;13082;52.374;4.946;2022-11-23T07:20:32;8.50;99.90
25092;DHT22;13082;52.374;4.946;2022-11-23T07:23:06;8.50;99.90
25092;DHT22;13082;52.374;4.946;2022-11-23T07:25:33;8.50;99.90
25092;DHT22;13082;52.374;4.946;2022-11-23T07:28:00;8.50;99.90
25092;DHT22;13082;52.374;4.946;2022-11-23T07:30:27;8.50;99.90
25092;DHT22;13082;52.374;4.946;2022-11-23T07:32:53;8.50;99.90
25092;DHT22;13082;52.374;4.946;2022-11-23T07:35:23;8.50;99.90
25092;DHT22;13082;52.374;4.946;2022-11-23T07:37:48;8.50;99.90
25092;DHT22;13082;52.374;4.946;2022-11-23T07:40:14;8.50;99.90
25092;DHT22;13082;52.374;4.946;2022-11-23T07:42:39;8.50;99.90
25092;DHT22;13082;52.374;4.946;2022-11-23T07:45:06;8.50;99.90
25092;DHT22;13082;52.374;4.946;2022-11-23T07:47:32;8.50;99.90
25092;DHT22;13082;52.374;4.946;2022-11-23T07:49:57;8.40;99.90
25092;DHT22;13082;52.374;4.946;2022-11-23T07:52:23;8.40;99.90
25092;DHT22;13082;52.374;4.946;2022-11-23T07:54:49;8.40;99.90
25092;DHT22;13082;52.374;4.946;2022-11-23T07:57:14;8.40;99.90
25092;DHT22;13082;52.374;4.946;2022-11-23T07:59:40;8.40;99.90
25092;DHT22;13082;52.374;4.946;2022-11-23T08:02:08;8.30;99.90
25092;DHT22;13082;52.374;4.946;2022-11-23T08:04:34;8.40;99.90
25092;DHT22;13082;52.374;4.946;2022-11-23T08:06:59;8.30;99.90
25092;DHT22;13082;52.374;4.946;2022-11-23T08:09:26;8.30;99.90
25092;DHT22;13082;52.374;4.946;2022-11-23T08:11:52;8.30;99.90
25092;DHT22;13082;52.374;4.946;2022-11-23T08:14:18;8.30;99.90
25092;DHT22;13082;52.374;4.946;2022-11-23T08:16:43;8.20;99.90
25092;DHT22;13082;52.374;4.946;2022-11-23T08:19:12;8.20;99.90
25092;DHT22;13082;52.374;4.946;2022-11-23T08:21:37;8.30;99.90
25092;DHT22;13082;52.374;4.946;2022-11-23T08:24:03;8.20;99.90
25092;DHT22;13082;52.374;4.946;2022-11-23T08:26:29;8.20;99.90
25092;DHT22;13082;52.374;4.946;2022-11-23T08:28:55;8.20;99.90
25092;DHT22;13082;52.374;4.946;2022-11-23T08:31:21;8.30;99.90
25092;DHT22;13082;52.374;4.946;2022-11-23T08:33:47;8.30;99.90
25092;DHT22;13082;52.374;4.946;2022-11-23T08:36:12;8.30;99.90
25092;DHT22;13082;52.374;4.946;2022-11-23T08:38:38;8.30;99.90
25092;DHT22;13082;52.374;4.946;2022-11-23T08:41:04;8.20;99.90
25092;DHT22;13082;52.374;4.946;2022-11-23T08:43:30;8.30;99.90
25092;DHT22;13082;52.374;4.946;2022-11-23T08:45:57;8.30;99.90
25092;DHT22;13082;52.374;4.946;2022-11-23T08:48:23;8.30;99.90
25092;DHT22;13082;52.374;4.946;2022-11-23T08:50:49;8.30;99.90
25092;DHT22;13082;52.374;4.946;2022-11-23T08:53:15;8.30;99.90
25092;DHT22;13082;52.374;4.946;2022-11-23T08:55:41;8.30;99.90
25092;DHT22;13082;52.374;4.946;2022-11-23T08:58:07;8.30;99.90
25092;DHT22;13082;52.374;4.946;2022-11-23T09:00:33;8.40;99.90
25092;DHT22;13082;52.374;4.946;2022-11-23T09:02:59;8.40;99.90
25092;DHT22;13082;52.374;4.946;2022-11-23T09:05:25;8.40;99.90
25092;DHT22;13082;52.374;4.946;2022-11-23T09:07:51;8.40;99.90
25092;DHT22;13082;52.374;4.946;2022-11-23T09:10:17;8.40;99.90
25092;DHT22;13082;52.374;4.946;2022-11-23T09:12:42;8.40;99.90
25092;DHT22;13082;52.374;4.946;2022-11-23T09:15:08;8.30;99.90
25092;DHT22;13082;52.374;4.946;2022-11-23T09:17:34;8.40;99.90
25092;DHT22;13082;52.374;4.946;2022-11-23T09:20:00;8.40;99.90
25092;DHT22;13082;52.374;4.946;2022-11-23T09:22:26;8.40;99.90
25092;DHT22;13082;52.374;4.946;2022-11-23T09:24:52;8.40;99.90
25092;DHT22;13082;52.374;4.946;2022-11-23T09:27:18;8.40;99.90
25092;DHT22;13082;52.374;4.946;2022-11-23T09:29:44;8.50;99.90
25092;DHT22;13082;52.374;4.946;2022-11-23T09:32:09;8.50;99.90
25092;DHT22;13082;52.374;4.946;2022-11-23T09:34:35;8.50;99.90
25092;DHT22;13082;52.374;4.946;2022-11-23T09:37:01;8.60;99.90
25092;DHT22;13082;52.374;4.946;2022-11-23T09:39:26;8.50;99.90
25092;DHT22;13082;52.374;4.946;2022-11-23T09:50:26;9.20;99.90
25092;DHT22;13082;52.374;4.946;2022-11-23T09:52:52;9.40;99.90
25092;DHT22;13082;52.374;4.946;2022-11-23T09:58:20;9.50;99.90
25092;DHT22;13082;52.374;4.946;2022-11-23T10:01:00;9.60;99.90
25092;DHT22;13082;52.374;4.946;2022-11-23T10:03:27;9.70;99.90
25092;DHT22;13082;52.374;4.946;2022-11-23T10:06:19;9.70;99.90
25092;DHT22;13082;52.374;4.946;2022-11-23T10:11:56;9.90;99.90
25092;DHT22;13082;52.374;4.946;2022-11-23T10:14:48;9.90;99.90
25092;DHT22;13082;52.374;4.946;2022-11-23T10:22:58;10.00;99.90
25092;DHT22;13082;52.374;4.946;2022-11-23T10:25:27;10.10;99.90
25092;DHT22;13082;52.374;4.946;2022-11-23T10:27:58;10.10;99.90
25092;DHT22;13082;52.374;4.946;2022-11-23T10:30:25;10.10;99.90
25092;DHT22;13082;52.374;4.946;2022-11-23T10:33:08;10.20;99.90
25092;DHT22;13082;52.374;4.946;2022-11-23T10:35:35;10.50;99.90
25092;DHT22;13082;52.374;4.946;2022-11-23T10:38:11;10.40;99.90
25092;DHT22;13082;52.374;4.946;2022-11-23T10:40:42;10.30;99.90
25092;DHT22;13082;52.374;4.946;2022-11-23T10:43:19;10.30;99.90
25092;DHT22;13082;52.374;4.946;2022-11-23T10:45:47;10.30;99.90
25092;DHT22;13082;52.374;4.946;2022-11-23T10:48:32;10.30;99.90
25092;DHT22;13082;52.374;4.946;2022-11-23T10:51:15;10.10;99.90
25092;DHT22;13082;52.374;4.946;2022-11-23T10:53:51;10.00;99.90
25092;DHT22;13082;52.374;4.946;2022-11-23T10:56:18;10.00;99.90
25092;DHT22;13082;52.374;4.946;2022-11-23T10:58:45;10.10;99.90
25092;DHT22;13082;52.374;4.946;2022-11-23T11:01:16;10.00;99.90
25092;DHT22;13082;52.374;4.946;2022-11-23T11:03:43;9.80;99.90
25092;DHT22;13082;52.374;4.946;2022-11-23T11:06:09;9.70;99.90
25092;DHT22;13082;52.374;4.946;2022-11-23T11:08:55;9.60;99.90
25092;DHT22;13082;52.374;4.946;2022-11-23T11:14:17;9.60;99.90
25092;DHT22;13082;52.374;4.946;2022-11-23T11:17:01;9.60;99.90
25092;DHT22;13082;52.374;4.946;2022-11-23T11:19:28;9.50;99.90
25092;DHT22;13082;52.374;4.946;2022-11-23T11:21:55;9.40;99.90
25092;DHT22;13082;52.374;4.946;2022-11-23T11:24:43;9.30;99.90
25092;DHT22;13082;52.374;4.946;2022-11-23T11:27:13;9.30;99.90
25092;DHT22;13082;52.374;4.946;2022-11-23T11:35:21;9.10;99.90
25092;DHT22;13082;52.374;4.946;2022-11-23T11:37:49;9.10;99.90
25092;DHT22;13082;52.374;4.946;2022-11-23T11:40:27;9.10;99.90
25092;DHT22;13082;52.374;4.946;2022-11-23T11:43:10;9.10;99.90
25092;DHT22;13082;52.374;4.946;2022-11-23T11:45:41;9.00;99.90
25092;DHT22;13082;52.374;4.946;2022-11-23T11:48:35;9.10;99.90
25092;DHT22;13082;52.374;4.946;2022-11-23T11:51:25;9.10;99.90
25092;DHT22;13082;52.374;4.946;2022-11-23T11:56:40;9.40;99.90
25092;DHT22;13082;52.374;4.946;2022-11-23T11:59:19;9.40;99.90
25092;DHT22;13082;52.374;4.946;2022-11-23T12:02:34;9.50;99.90
25092;DHT22;13082;52.374;4.946;2022-11-23T12:10:28;9.50;99.90
25092;DHT22;13082;52.374;4.946;2022-11-23T12:12:54;9.50;99.90
25092;DHT22;13082;52.374;4.946;2022-11-23T12:15:33;9.50;99.90
25092;DHT22;13082;52.374;4.946;2022-11-23T12:19:00;9.60;99.90
25092;DHT22;13082;52.374;4.946;2022-11-23T12:32:24;9.90;99.90
25092;DHT22;13082;52.374;4.946;2022-11-23T12:43:12;10.10;99.90
25092;DHT22;13082;52.374;4.946;2022-11-23T12:45:53;10.10;99.90
25092;DHT22;13082;52.374;4.946;2022-11-23T12:51:20;9.90;99.90
25092;DHT22;13082;52.374;4.946;2022-11-23T12:54:34;9.90;99.90
25092;DHT22;13082;52.374;4.946;2022-11-23T12:57:41;9.80;99.90
25092;DHT22;13082;52.374;4.946;2022-11-23T12:59:54;9.70;99.90
25092;DHT22;13082;52.374;4.946;2022-11-23T13:05:08;9.80;99.90
25092;DHT22;13082;52.374;4.946;2022-11-23T13:10:24;9.70;99.90
25092;DHT22;13082;52.374;4.946;2022-11-23T13:23:47;9.80;99.90
25092;DHT22;13082;52.374;4.946;2022-11-23T13:26:20;9.90;99.90
25092;DHT22;13082;52.374;4.946;2022-11-23T13:28:47;9.90;99.90
25092;DHT22;13082;52.374;4.946;2022-11-23T13:33:39;9.80;99.90
25092;DHT22;13082;52.374;4.946;2022-11-23T13:36:09;9.80;99.90
25092;DHT22;13082;52.374;4.946;2022-11-23T13:38:40;9.70;99.90
25092;DHT22;13082;52.374;4.946;2022-11-23T13:41:55;9.70;99.90
25092;DHT22;13082;52.374;4.946;2022-11-23T13:44:28;9.50;99.90
25092;DHT22;13082;52.374;4.946;2022-11-23T13:47:06;9.40;99.90
25092;DHT22;13082;52.374;4.946;2022-11-23T13:49:45;9.30;99.90
25092;DHT22;13082;52.374;4.946;2022-11-23T13:52:25;9.20;99.90
25092;DHT22;13082;52.374;4.946;2022-11-23T13:57:25;9.10;99.90
25092;DHT22;13082;52.374;4.946;2022-11-23T13:59:50;9.10;99.90
25092;DHT22;13082;52.374;4.946;2022-11-23T14:04:43;9.00;99.90
25092;DHT22;13082;52.374;4.946;2022-11-23T14:07:24;9.00;99.90
25092;DHT22;13082;52.374;4.946;2022-11-23T14:10:01;8.90;99.90
25092;DHT22;13082;52.374;4.946;2022-11-23T14:12:45;8.90;99.90
25092;DHT22;13082;52.374;4.946;2022-11-23T14:15:19;8.90;99.90
25092;DHT22;13082;52.374;4.946;2022-11-23T14:42:20;8.70;99.90
25092;DHT22;13082;52.374;4.946;2022-11-23T14:44:47;8.60;99.90
25092;DHT22;13082;52.374;4.946;2022-11-23T14:47:13;8.60;99.90
25092;DHT22;13082;52.374;4.946;2022-11-23T14:49:49;8.60;99.90
25092;DHT22;13082;52.374;4.946;2022-11-23T14:52:33;8.70;99.90
25092;DHT22;13082;52.374;4.946;2022-11-23T14:55:03;8.70;99.90
25092;DHT22;13082;52.374;4.946;2022-11-23T14:57:38;8.60;99.90
25092;DHT22;13082;52.374;4.946;2022-11-23T15:00:05;8.70;99.90
25092;DHT22;13082;52.374;4.946;2022-11-23T15:02:35;8.70;99.90
25092;DHT22;13082;52.374;4.946;2022-11-23T15:05:05;8.70;99.90
25092;DHT22;13082;52.374;4.946;2022-11-23T15:07:59;8.70;99.90
25092;DHT22;13082;52.374;4.946;2022-11-23T15:12:56;8.70;99.90
25092;DHT22;13082;52.374;4.946;2022-11-23T15:15:28;8.70;99.90
25092;DHT22;13082;52.374;4.946;2022-11-23T15:18:02;8.80;99.90
25092;DHT22;13082;52.374;4.946;2022-11-23T15:20:33;8.80;99.90
25092;DHT22;13082;52.374;4.946;2022-11-23T15:23:00;8.80;99.90
25092;DHT22;13082;52.374;4.946;2022-11-23T15:25:26;8.80;99.90
25092;DHT22;13082;52.374;4.946;2022-11-23T15:27:52;8.80;99.90
25092;DHT22;13082;52.374;4.946;2022-11-23T15:30:26;8.80;99.90
25092;DHT22;13082;52.374;4.946;2022-11-23T15:32:56;8.80;99.90
25092;DHT22;13082;52.374;4.946;2022-11-23T15:35:29;8.80;99.90
25092;DHT22;13082;52.374;4.946;2022-11-23T15:37:55;8.80;99.90
25092;DHT22;13082;52.374;4.946;2022-11-23T15:40:22;8.80;99.90
25092;DHT22;13082;52.374;4.946;2022-11-23T15:42:49;8.80;99.90
25092;DHT22;13082;52.374;4.946;2022-11-23T15:45:57;8.80;99.90
25092;DHT22;13082;52.374;4.946;2022-11-23T15:48:29;8.80;99.90
25092;DHT22;13082;52.374;4.946;2022-11-23T15:51:04;8.80;99.90
25092;DHT22;13082;52.374;4.946;2022-11-23T15:53:32;8.80;99.90
25092;DHT22;13082;52.374;4.946;2022-11-23T15:56:05;8.80;99.90
25092;DHT22;13082;52.374;4.946;2022-11-23T15:58:32;8.80;99.90
25092;DHT22;13082;52.374;4.946;2022-11-23T16:01:06;8.80;99.90
25092;DHT22;13082;52.374;4.946;2022-11-23T16:08:49;8.80;99.90
25092;DHT22;13082;52.374;4.946;2022-11-23T16:11:33;8.90;99.90
25092;DHT22;13082;52.374;4.946;2022-11-23T16:14:12;8.90;99.90
25092;DHT22;13082;52.374;4.946;2022-11-23T16:16:39;8.80;99.90
25092;DHT22;13082;52.374;4.946;2022-11-23T16:19:21;8.90;99.90
25092;DHT22;13082;52.374;4.946;2022-11-23T16:21:49;8.90;99.90
25092;DHT22;13082;52.374;4.946;2022-11-23T16:24:19;8.90;99.90
25092;DHT22;13082;52.374;4.946;2022-11-23T16:26:46;8.90;99.90
25092;DHT22;13082;52.374;4.946;2022-11-23T16:29:28;8.90;99.90
25092;DHT22;13082;52.374;4.946;2022-11-23T16:31:58;8.90;99.90
25092;DHT22;13082;52.374;4.946;2022-11-23T16:34:24;8.90;99.90
25092;DHT22;13082;52.374;4.946;2022-11-23T16:36:52;8.90;99.90
25092;DHT22;13082;52.374;4.946;2022-11-23T16:39:22;8.90;99.90
25092;DHT22;13082;52.374;4.946;2022-11-23T16:41:49;8.90;99.90
25092;DHT22;13082;52.374;4.946;2022-11-23T16:44:16;8.90;99.90
25092;DHT22;13082;52.374;4.946;2022-11-23T16:46:41;8.90;99.90
25092;DHT22;13082;52.374;4.946;2022-11-23T16:49:14;8.90;99.90
25092;DHT22;13082;52.374;4.946;2022-11-23T16:51:41;8.90;99.90
25092;DHT22;13082;52.374;4.946;2022-11-23T16:54:07;9.00;99.90
25092;DHT22;13082;52.374;4.946;2022-11-23T16:56:33;9.00;99.90
25092;DHT22;13082;52.374;4.946;2022-11-23T16:58:59;9.00;99.90
25092;DHT22;13082;52.374;4.946;2022-11-23T17:01:28;9.00;99.90
25092;DHT22;13082;52.374;4.946;2022-11-23T17:03:55;9.00;99.90
25092;DHT22;13082;52.374;4.946;2022-11-23T17:06:21;9.00;99.90
25092;DHT22;13082;52.374;4.946;2022-11-23T17:08:48;9.00;99.90
25092;DHT22;13082;52.374;4.946;2022-11-23T17:11:22;9.00;99.90
25092;DHT22;13082;52.374;4.946;2022-11-23T17:13:50;9.00;99.90
25092;DHT22;13082;52.374;4.946;2022-11-23T17:16:21;9.00;99.90
25092;DHT22;13082;52.374;4.946;2022-11-23T17:18:47;9.00;99.90
25092;DHT22;13082;52.374;4.946;2022-11-23T17:21:13;9.10;99.90
25092;DHT22;13082;52.374;4.946;2022-11-23T17:23:39;9.00;99.90
25092;DHT22;13082;52.374;4.946;2022-11-23T17:26:35;9.10;99.90
25092;DHT22;13082;52.374;4.946;2022-11-23T17:29:04;9.00;99.90
25092;DHT22;13082;52.374;4.946;2022-11-23T17:31:30;9.00;99.90
25092;DHT22;13082;52.374;4.946;2022-11-23T17:33:56;9.10;99.90
25092;DHT22;13082;52.374;4.946;2022-11-23T17:36:24;9.10;99.90
25092;DHT22;13082;52.374;4.946;2022-11-23T17:38:49;9.00;99.90
25092;DHT22;13082;52.374;4.946;2022-11-23T17:41:15;9.00;99.90
25092;DHT22;13082;52.374;4.946;2022-11-23T17:43:41;9.00;99.90
25092;DHT22;13082;52.374;4.946;2022-11-23T17:46:39;9.00;99.90
25092;DHT22;13082;52.374;4.946;2022-11-23T17:49:07;9.00;99.90
25092;DHT22;13082;52.374;4.946;2022-11-23T17:51:37;9.00;99.90
25092;DHT22;13082;52.374;4.946;2022-11-23T17:54:03;8.90;99.90
25092;DHT22;13082;52.374;4.946;2022-11-23T17:56:28;8.90;99.90